Terminal Aerodrome Forecast
Issued by NWS Pocatello, ID

Home | Current Version | Previous Version | Text Only | Print | Product List | Glossary On
Versions: 1 2 3 4 5 6 7 8 9 10 11 12 13 14 15 16 17 18
744
FTUS45 KPIH 280525
TAFIDA
TAF
KIDA 280525Z 2806/0106 20011KT P6SM SCT015
     FM280900 21011KT P6SM BKN015
     FM281500 21020G30KT 3SM -SHSN OVC020
     FM282000 23028G38KT P6SM VCSH SCT020 BKN050
     FM010200 22017KT P6SM SCT008=

USA.gov is the U.S. government's official web portal to all federal, state and local government web resources and services.